Time;durP1;ratioP1;P1;durP2;ratioP2;P2;SDS_P1;SDS_P2;PMS_P1;PMS_P2;Temp;Humidity;BMP_temperature;BMP_pressure;BME280_temperature;BME280_humidity;BME280_pressure;Samples;Min_cycle;Max_cycle;Signal;HPM_P1;HPM_P2
2021/10/28 00:14:37;;;;;;;5.15;3.65;;;;;;;13.40;80.12;101670.50;1735704;81;21100;-81
2021/10/28 00:17:09;;;;;;;5.60;3.47;;;;;;;13.36;80.12;101672.98;1735737;82;21079;-81
2021/10/28 00:19:30;;;;;;;5.42;3.27;;;;;;;13.33;80.18;101674.25;1734922;82;21049;-81
2021/10/28 00:21:57;;;;;;;4.05;3.35;;;;;;;13.30;80.19;101683.37;1735942;81;20998;-81
2021/10/28 00:24:24;;;;;;;5.15;3.27;;;;;;;13.28;80.17;101685.08;1735902;82;21920;-81
2021/10/28 00:26:53;;;;;;;5.65;3.27;;;;;;;13.26;80.32;101686.34;1706279;82;21011;-81
2021/10/28 00:29:23;;;;;;;4.87;3.47;;;;;;;13.27;80.39;101694.77;1735874;82;21121;-81
2021/10/28 00:31:51;;;;;;;6.50;3.90;;;;;;;13.29;80.38;101689.09;1735822;82;21077;-82
2021/10/28 00:34:19;;;;;;;5.30;3.80;;;;;;;13.30;80.34;101686.02;1705983;82;21064;-82
2021/10/28 00:36:49;;;;;;;4.83;3.72;;;;;;;13.32;80.41;101701.53;1706142;82;21054;-82
2021/10/28 00:39:17;;;;;;;5.42;3.47;;;;;;;13.33;80.42;101702.90;1706001;82;21077;-82
2021/10/28 00:41:44;;;;;;;10.53;3.95;;;;;;;13.35;80.38;101697.23;1735968;82;21186;-82
2021/10/28 00:44:14;;;;;;;5.80;3.40;;;;;;;13.37;80.38;101696.84;1735421;81;21077;-82
2021/10/28 00:46:43;;;;;;;4.37;3.42;;;;;;;13.38;80.35;101696.00;1705840;82;21065;-81
2021/10/28 00:49:10;;;;;;;7.30;3.47;;;;;;;13.42;80.36;101687.73;1735932;81;21789;-81
2021/10/28 00:51:38;;;;;;;5.50;3.75;;;;;;;13.46;80.34;101695.30;1735840;82;21058;-82
2021/10/28 00:54:05;;;;;;;4.60;3.60;;;;;;;13.48;80.27;101694.52;1735915;81;21062;-83
2021/10/28 00:56:32;;;;;;;7.22;3.37;;;;;;;13.51;80.23;101698.98;1735885;82;21065;-82
2021/10/28 00:59:05;;;;;;;4.12;3.45;;;;;;;13.51;80.14;101698.55;1736002;82;21088;-82
2021/10/28 01:01:30;;;;;;;6.40;3.20;;;;;;;13.53;80.14;101706.12;1735874;82;21789;-82
2021/10/28 01:03:57;;;;;;;5.60;3.60;;;;;;;13.57;80.14;101713.69;1736102;82;21014;-82
2021/10/28 01:06:26;;;;;;;4.22;3.50;;;;;;;13.57;80.08;101713.69;1706169;82;21080;-81
2021/10/28 01:08:54;;;;;;;4.45;3.33;;;;;;;13.58;80.02;101708.45;1706402;82;21120;-82
2021/10/28 01:11:23;;;;;;;5.62;3.50;;;;;;;13.60;79.98;101711.14;1736294;82;21077;-83
2021/10/28 01:13:50;;;;;;;5.10;3.40;;;;;;;13.61;79.95;101717.80;1736266;82;22580;-83
2021/10/28 01:16:20;;;;;;;7.85;3.60;;;;;;;13.63;79.91;101724.47;1736052;82;21073;-83
2021/10/28 01:18:46;;;;;;;4.17;3.25;;;;;;;13.65;79.86;101725.41;1736033;82;21070;-82
2021/10/28 01:21:14;;;;;;;7.00;3.50;;;;;;;13.67;79.87;101724.13;1735570;81;21069;-82
2021/10/28 01:23:43;;;;;;;5.62;3.20;;;;;;;13.68;79.76;101725.47;1706748;82;21186;-82
2021/10/28 01:26:15;;;;;;;4.50;2.67;;;;;;;13.70;79.71;101726.84;1735448;81;21196;-82
2021/10/28 01:29:02;;;;;;;6.08;3.27;;;;;;;13.71;79.70;101730.86;1735765;82;21081;-82
2021/10/28 01:31:30;;;;;;;5.70;3.30;;;;;;;13.73;79.64;101731.80;1707120;82;21492;-82
2021/10/28 01:33:59;;;;;;;4.55;3.02;;;;;;;13.73;79.58;101723.86;1734933;82;20990;-83
2021/10/28 01:36:26;;;;;;;5.87;3.00;;;;;;;13.75;79.56;101721.25;1736073;82;21069;-83
2021/10/28 01:38:53;;;;;;;7.25;3.35;;;;;;;13.76;79.53;101725.27;1736045;82;21011;-82
2021/10/28 01:41:20;;;;;;;5.22;2.95;;;;;;;13.76;79.41;101729.68;1735917;82;21069;-82
2021/10/28 01:43:49;;;;;;;4.17;2.90;;;;;;;13.75;79.38;101723.91;1735099;81;21721;-82
2021/10/28 01:46:15;;;;;;;4.55;3.05;;;;;;;13.75;79.40;101732.73;1727923;82;21578;-82
2021/10/28 01:48:43;;;;;;;6.62;3.60;;;;;;;13.76;79.36;101732.33;1728223;82;21138;-82
2021/10/28 01:51:10;;;;;;;6.60;3.67;;;;;;;13.76;79.36;101729.68;1728183;82;21829;-81
2021/10/28 01:53:41;;;;;;;6.97;3.00;;;;;;;13.74;79.31;101734.92;1728142;83;21109;-80
2021/10/28 01:56:13;;;;;;;5.15;3.20;;;;;;;13.72;79.28;101733.98;1702535;83;21042;-82
2021/10/28 01:58:38;;;;;;;4.17;2.62;;;;;;;13.72;79.29;101730.42;1727922;83;21081;-82
2021/10/28 02:01:08;;;;;;;8.10;3.75;;;;;;;13.71;79.31;101740.12;1728136;83;21077;-82
2021/10/28 02:03:34;;;;;;;8.18;3.85;;;;;;;13.72;79.31;101748.54;1728023;82;21784;-84
2021/10/28 02:06:02;;;;;;;5.08;3.62;;;;;;;13.72;79.31;101747.63;1728207;81;21041;-83
2021/10/28 02:08:28;;;;;;;5.92;3.87;;;;;;;13.72;79.33;101743.65;1728053;82;21108;-83
2021/10/28 02:10:55;;;;;;;6.72;3.40;;;;;;;13.71;79.26;101749.38;1728083;81;21089;-84
2021/10/28 02:13:22;;;;;;;6.50;4.00;;;;;;;13.69;79.24;101755.05;1728129;82;21012;-81
2021/10/28 02:15:51;;;;;;;8.40;4.20;;;;;;;13.68;79.28;101755.89;1702592;83;21110;-82
2021/10/28 02:18:21;;;;;;;9.20;4.08;;;;;;;13.66;79.28;101747.02;1728153;82;21077;-82
2021/10/28 02:20:47;;;;;;;6.83;4.40;;;;;;;13.65;79.27;101754.94;1727914;83;21083;-82
2021/10/28 02:23:15;;;;;;;7.62;3.80;;;;;;;13.66;79.32;101759.36;1728019;82;21078;-82
2021/10/28 02:25:47;;;;;;;7.83;4.17;;;;;;;13.65;79.30;101761.12;1727698;81;21121;-82
2021/10/28 02:28:12;;;;;;;8.25;4.50;;;;;;;13.63;79.24;101758.86;1728023;83;21803;-82
2021/10/28 02:30:39;;;;;;;5.87;4.10;;;;;;;13.63;79.31;101761.91;1728243;81;21042;-82
2021/10/28 02:33:06;;;;;;;6.33;3.87;;;;;;;13.63;79.34;101778.70;1728260;83;21034;-82
2021/10/28 02:35:34;;;;;;;5.67;4.00;;;;;;;13.63;79.31;101776.45;1702590;83;21069;-82
2021/10/28 02:38:03;;;;;;;7.25;4.55;;;;;;;13.64;79.30;101776.94;1702656;83;21545;-82
2021/10/28 02:40:31;;;;;;;7.55;4.42;;;;;;;13.61;79.25;101777.77;1728056;82;21259;-81
2021/10/28 02:42:57;;;;;;;7.53;5.08;;;;;;;13.60;79.24;101775.52;1728031;82;21548;-81
2021/10/28 02:45:24;;;;;;;8.90;5.37;;;;;;;13.58;79.28;101773.27;1742087;82;21079;-81
2021/10/28 02:47:55;;;;;;;7.97;5.83;;;;;;;13.57;79.28;101779.82;1749936;81;21121;-82
2021/10/28 02:50:21;;;;;;;10.50;5.85;;;;;;;13.55;79.32;101775.84;1749753;81;21087;-82
2021/10/28 02:52:53;;;;;;;12.40;6.40;;;;;;;13.56;79.32;101782.02;1749621;82;21122;-82
2021/10/28 02:55:20;;;;;;;9.90;6.20;;;;;;;13.55;79.35;101786.82;1750044;81;21008;-82
2021/10/28 02:57:51;;;;;;;10.00;6.10;;;;;;;13.55;79.31;101786.82;1750036;81;21094;-82
2021/10/28 03:00:16;;;;;;;8.70;6.17;;;;;;;13.51;79.26;101788.91;1749684;81;21083;-81
2021/10/28 03:02:46;;;;;;;9.50;6.72;;;;;;;13.48;79.31;101792.38;1725979;82;21144;-81
2021/10/28 03:05:14;;;;;;;10.32;6.92;;;;;;;13.48;79.39;101790.16;1749256;81;22049;-81
2021/10/28 03:07:44;;;;;;;10.98;6.60;;;;;;;13.47;79.37;101788.36;1750137;81;21074;-81
2021/10/28 03:10:10;;;;;;;8.93;6.70;;;;;;;13.45;79.42;101790.95;1749575;81;21149;-83
2021/10/28 03:12:40;;;;;;;6.10;5.37;;;;;;;13.45;79.38;101792.27;1749907;81;21087;-82
2021/10/28 03:15:08;;;;;;;11.10;5.97;;;;;;;13.42;79.38;101789.55;1750065;81;21023;-82
2021/10/28 03:17:58;;;;;;;8.33;5.87;;;;;;;13.40;79.42;101792.15;1726037;81;21079;-81
2021/10/28 03:25:41;;;;;;;7.58;5.53;;;;;;;13.38;79.44;101794.25;1729912;82;21058;-80
2021/10/28 03:28:15;;;;;;;8.78;5.60;;;;;;;13.35;79.48;101788.46;1725959;81;21183;-81
2021/10/28 03:30:45;;;;;;;9.50;6.33;;;;;;;13.35;79.51;101794.18;1723780;81;21785;-81
2021/10/28 03:33:15;;;;;;;6.90;5.40;;;;;;;13.33;79.54;101793.24;1726262;81;21063;-81
2021/10/28 03:35:41;;;;;;;7.95;5.12;;;;;;;13.31;79.54;101798.48;1749713;81;21220;-81
2021/10/28 03:38:19;;;;;;;9.95;5.50;;;;;;;13.28;79.57;101797.02;1748563;81;21074;-82
2021/10/28 03:41:04;;;;;;;9.15;5.60;;;;;;;13.27;79.61;101795.24;1749608;81;21071;-81
2021/10/28 04:29:06;;;;;;;9.00;5.12;;;;;;;13.15;79.59;101830.53;1725987;82;21023;-79
2021/10/28 04:31:38;;;;;;;9.03;5.50;;;;;;;13.16;79.59;101832.34;1722921;82;21495;-82
2021/10/28 04:34:08;;;;;;;7.85;5.20;;;;;;;13.15;79.52;101838.03;1753177;81;21090;-80
2021/10/28 04:36:38;;;;;;;9.43;6.10;;;;;;;13.16;79.47;101831.02;1753282;81;21777;-77
2021/10/28 04:39:08;;;;;;;11.80;6.05;;;;;;;13.15;79.49;101830.10;1722955;83;21359;-77
2021/10/28 04:41:41;;;;;;;9.50;5.53;;;;;;;13.15;79.41;101831.42;1752595;81;21075;-78
2021/10/28 04:44:14;;;;;;;9.28;5.20;;;;;;;13.16;79.42;101829.70;1752424;81;21260;-77
2021/10/28 04:46:39;;;;;;;9.83;5.55;;;;;;;13.16;79.38;101832.34;1722507;81;21083;-77
2021/10/28 04:49:06;;;;;;;12.90;5.80;;;;;;;13.16;79.37;101829.27;1690952;84;21771;-78
2021/10/28 04:51:32;;;;;;;9.68;5.55;;;;;;;13.18;79.33;101834.61;1700096;84;21556;-74
2021/10/28 04:53:59;;;;;;;13.50;5.87;;;;;;;13.17;79.23;101838.97;1700262;84;21053;-74
2021/10/28 04:56:28;;;;;;;10.63;6.60;;;;;;;13.18;79.15;101845.19;1700267;84;21070;-75
2021/10/28 04:58:54;;;;;;;10.43;6.08;;;;;;;13.17;79.15;101849.55;1700392;82;21065;-80
2021/10/28 05:01:23;;;;;;;10.88;5.85;;;;;;;13.18;79.16;101852.69;1700774;82;21883;-81
2021/10/28 05:03:49;;;;;;;13.30;6.03;;;;;;;13.18;79.12;101851.36;1721713;82;21631;-81
2021/10/28 05:06:16;;;;;;;9.18;6.50;;;;;;;13.19;79.03;101849.61;1700753;84;21069;-81
2021/10/28 05:08:43;;;;;;;9.40;6.60;;;;;;;13.19;79.03;101842.99;1700341;84;21105;-75
2021/10/28 05:11:10;;;;;;;8.95;6.22;;;;;;;13.21;78.96;101843.94;1700505;84;21615;-75
2021/10/28 05:13:37;;;;;;;11.18;6.72;;;;;;;13.21;78.92;101843.94;1700677;84;22583;-75
2021/10/28 05:16:05;;;;;;;13.08;6.95;;;;;;;13.21;78.88;101844.86;1700667;83;21061;-75
2021/10/28 05:18:39;;;;;;;11.33;6.53;;;;;;;13.23;78.79;101857.70;1700729;84;21097;-75
2021/10/28 05:21:00;;;;;;;12.33;7.00;;;;;;;13.25;78.77;101850.22;1699602;84;21124;-75
2021/10/28 05:25:52;;;;;;;9.35;6.08;;;;;;;13.31;78.59;101850.48;1772802;80;21969;-74
2021/10/28 05:28:19;;;;;;;8.95;6.22;;;;;;;13.27;78.50;101864.39;1753826;81;21062;-74
2021/10/28 05:30:46;;;;;;;9.23;6.40;;;;;;;13.26;78.45;101865.25;1754055;81;21757;-74
2021/10/28 05:33:13;;;;;;;9.30;5.85;;;;;;;13.27;78.49;101865.31;1753941;81;21117;-74
2021/10/28 05:35:40;;;;;;;9.35;5.90;;;;;;;13.28;78.45;101867.52;1753939;81;21085;-74
2021/10/28 05:38:06;;;;;;;11.65;6.12;;;;;;;13.29;78.39;101866.25;1753949;81;21077;-74
2021/10/28 05:40:33;;;;;;;14.28;6.35;;;;;;;13.29;78.33;101864.93;1753972;81;21071;-74
2021/10/28 05:43:01;;;;;;;9.68;7.12;;;;;;;13.27;78.30;101870.59;1753868;81;21210;-74
2021/10/28 05:45:32;;;;;;;12.18;6.60;;;;;;;13.28;78.28;101872.38;1753810;81;21137;-74
2021/10/28 05:47:59;;;;;;;11.10;6.45;;;;;;;13.27;78.24;101871.00;1754002;81;21030;-74
2021/10/28 05:50:26;;;;;;;8.85;5.47;;;;;;;13.26;78.28;101863.94;1753912;81;21074;-74
2021/10/28 05:52:54;;;;;;;8.78;6.22;;;;;;;13.26;78.23;101870.55;1753983;81;21564;-74
2021/10/28 05:55:22;;;;;;;11.35;6.62;;;;;;;13.24;78.24;101874.45;1753969;81;21771;-74
2021/10/28 05:57:50;;;;;;;13.72;7.03;;;;;;;13.23;78.24;101875.28;1753913;81;21528;-74
2021/10/28 06:00:18;;;;;;;11.40;7.30;;;;;;;13.23;78.30;101873.56;1753964;81;21109;-74
2021/10/28 06:02:45;;;;;;;11.30;6.83;;;;;;;13.24;78.29;101881.06;1754158;81;21054;-74
2021/10/28 06:05:11;;;;;;;12.93;7.25;;;;;;;13.22;78.31;101882.77;1753948;81;21612;-74
2021/10/28 06:07:39;;;;;;;14.78;7.00;;;;;;;13.24;78.36;101888.99;1753896;81;22640;-74
2021/10/28 06:10:07;;;;;;;12.30;6.97;;;;;;;13.24;78.37;101890.31;1753818;81;21465;-74
2021/10/28 06:12:40;;;;;;;12.45;7.55;;;;;;;13.25;78.38;101889.88;1753919;81;21070;-74
2021/10/28 06:15:04;;;;;;;14.45;7.10;;;;;;;13.25;78.34;101880.23;1752855;81;21062;-74
2021/10/28 06:17:33;;;;;;;13.20;7.17;;;;;;;13.26;78.36;101891.70;1753856;81;21082;-74
2021/10/28 06:20:01;;;;;;;11.80;7.12;;;;;;;13.26;78.41;101903.59;1754130;81;21789;-75
2021/10/28 06:22:29;;;;;;;14.68;6.50;;;;;;;13.27;78.39;101908.02;1753636;81;21007;-75
2021/10/28 06:24:57;;;;;;;10.48;6.12;;;;;;;13.27;78.43;101909.34;1750078;81;21059;-75
2021/10/28 06:27:29;;;;;;;10.72;6.80;;;;;;;13.28;78.44;101912.04;1745965;82;21004;-75
2021/10/28 06:29:54;;;;;;;11.90;6.85;;;;;;;13.29;78.40;101916.49;1745888;82;21075;-75
2021/10/28 06:32:23;;;;;;;12.78;7.10;;;;;;;13.30;78.41;101914.73;1745940;82;21110;-75
2021/10/28 06:34:51;;;;;;;11.68;7.80;;;;;;;13.30;78.39;101911.70;1745290;81;21129;-75
2021/10/28 06:37:18;;;;;;;9.13;7.40;;;;;;;13.29;78.38;101911.20;1745577;82;21070;-75
2021/10/28 06:39:44;;;;;;;12.15;7.87;;;;;;;13.28;78.42;101907.19;1745706;82;21066;-75
2021/10/28 06:42:13;;;;;;;11.53;7.75;;;;;;;13.29;78.43;101911.60;1745661;81;20996;-75
2021/10/28 06:44:41;;;;;;;11.30;7.28;;;;;;;13.30;78.40;101917.38;1745622;82;22632;-75
2021/10/28 06:47:07;;;;;;;15.78;7.35;;;;;;;13.27;78.38;101911.58;1745571;82;21078;-75
2021/10/28 06:49:38;;;;;;;13.95;7.97;;;;;;;13.27;78.43;101925.20;1745583;82;21082;-75
2021/10/28 06:52:05;;;;;;;18.05;7.78;;;;;;;13.28;78.45;101924.38;1745341;82;21066;-75
2021/10/28 06:54:35;;;;;;;17.00;8.13;;;;;;;13.30;78.51;101915.66;1745659;82;21153;-75
2021/10/28 07:04:47;;;;;;;13.28;7.80;;;;;;;13.46;78.39;101920.11;1745973;82;21074;-75
2021/10/28 07:07:14;;;;;;;14.73;8.65;;;;;;;13.48;78.34;101922.41;1745699;82;21024;-75
2021/10/28 07:09:50;;;;;;;13.25;7.90;;;;;;;13.50;78.31;101924.68;1745732;82;21819;-75
2021/10/28 07:12:27;;;;;;;14.55;9.63;;;;;;;13.52;78.26;101925.19;1744414;82;21107;-75
2021/10/28 07:14:54;;;;;;;16.87;8.10;;;;;;;13.54;78.18;101926.13;1744691;81;21530;-75
2021/10/28 07:22:57;;;;;;;15.48;8.40;;;;;;;13.65;78.09;101927.80;1745639;82;22588;-75
2021/10/28 07:25:25;;;;;;;11.43;7.58;;;;;;;13.69;78.06;101923.50;1745319;81;21596;-76
2021/10/28 07:30:39;;;;;;;9.98;7.60;;;;;;;13.79;77.86;101922.92;1692635;81;21069;-76
2021/10/28 08:00:08;;;;;;;14.98;7.40;;;;;;;14.47;76.84;101932.84;1753513;81;21085;-75
2021/10/28 08:05:41;;;;;;;10.70;7.87;;;;;;;14.59;76.64;101941.17;1753200;81;21038;-75
2021/10/28 08:13:29;;;;;;;12.00;7.72;;;;;;;14.67;76.62;101940.05;1729915;81;21654;-75
2021/10/28 08:18:43;;;;;;;11.10;7.20;;;;;;;15.09;76.00;101931.42;1753457;81;21078;-75
2021/10/28 08:23:48;;;;;;;7.87;6.55;;;;;;;15.29;75.54;101933.25;1753233;81;21114;-75
2021/10/28 08:28:57;;;;;;;12.20;6.80;;;;;;;15.45;75.24;101931.89;1753294;81;22009;-75
2021/10/28 08:31:25;;;;;;;11.28;6.85;;;;;;;15.55;74.98;101933.88;1752934;81;21113;-75
2021/10/28 08:33:51;;;;;;;10.65;7.60;;;;;;;15.60;74.69;101933.97;1753472;81;21548;-75
2021/10/28 08:36:31;;;;;;;17.27;10.50;;;;;;;15.62;74.52;101930.95;1753533;81;21086;-75
2021/10/28 08:38:58;;;;;;;14.18;8.88;;;;;;;15.64;74.30;101931.88;1722719;81;21047;-75
2021/10/28 08:41:25;;;;;;;12.47;7.80;;;;;;;15.65;74.16;101936.31;1753483;81;21812;-76
2021/10/28 08:43:54;;;;;;;9.38;7.33;;;;;;;15.65;74.08;101937.64;1753396;81;21690;-75
2021/10/28 08:46:26;;;;;;;10.90;7.60;;;;;;;15.70;74.06;101939.98;1753237;81;21533;-75
2021/10/28 08:49:06;;;;;;;9.60;7.12;;;;;;;15.74;73.89;101934.80;1753414;81;21564;-75
2021/10/28 08:51:38;;;;;;;8.58;6.87;;;;;;;15.83;73.86;101934.11;1752122;81;21087;-75
2021/10/28 08:54:08;;;;;;;10.98;7.17;;;;;;;15.94;73.67;101931.27;1751656;81;21800;-75
2021/10/28 09:25:03;;;;;;;11.68;7.65;;;;;;;16.44;71.15;101925.22;1722540;81;21050;-75
2021/10/28 09:27:34;;;;;;;12.98;8.15;;;;;;;16.42;71.16;101932.27;1752448;81;21521;-75
2021/10/28 09:30:12;;;;;;;;;;;;;;;16.47;71.23;101934.56;1702657;81;21159;-75
2021/10/28 09:32:48;;;;;;;13.28;7.85;;;;;;;16.47;70.88;101928.36;1753593;81;20226;-75
2021/10/28 09:44:32;;;;;;;11.35;8.20;;;;;;;16.49;70.55;101941.25;1753274;81;21075;-75
2021/10/28 09:47:03;;;;;;;18.77;8.63;;;;;;;16.59;70.40;101940.98;1749535;81;21070;-75
2021/10/28 09:51:53;;;;;;;9.88;8.60;;;;;;;16.69;70.00;101929.67;1753446;81;21166;-75
2021/10/28 09:59:55;;;;;;;13.43;11.05;;;;;;;16.68;69.31;101927.87;1753774;81;21038;-75
2021/10/28 10:02:38;;;;;;;11.55;9.83;;;;;;;16.66;69.14;101934.92;1753662;81;21779;-75
2021/10/28 10:05:17;;;;;;;15.32;10.95;;;;;;;16.62;68.99;101941.94;1753225;81;21577;-75
2021/10/28 10:07:40;;;;;;;15.13;10.25;;;;;;;16.67;68.97;101939.39;1752577;81;21190;-75
2021/10/28 10:10:07;;;;;;;15.72;11.15;;;;;;;16.71;68.95;101937.24;1753553;81;21047;-75
2021/10/28 10:12:34;;;;;;;11.43;9.93;;;;;;;16.76;68.80;101933.33;1753572;81;21044;-75
2021/10/28 10:15:01;;;;;;;12.98;10.30;;;;;;;16.80;68.69;101933.84;1753622;81;21722;-75
2021/10/28 10:17:28;;;;;;;13.15;10.70;;;;;;;16.84;68.55;101939.29;1753481;81;21584;-75
2021/10/28 10:19:57;;;;;;;11.18;10.05;;;;;;;16.87;68.26;101938.03;1753607;81;21019;-75
2021/10/28 10:25:34;;;;;;;11.75;10.10;;;;;;;16.92;67.99;101936.77;1639361;86;21631;-75
2021/10/28 10:28:44;;;;;;;10.93;9.93;;;;;;;16.96;67.74;101931.07;1722741;82;21905;-75
2021/10/28 11:03:05;;;;;;;11.95;10.70;;;;;;;16.93;67.39;101925.27;1740851;82;21066;-75
2021/10/28 11:26:42;;;;;;;14.73;8.20;;;;;;;17.53;64.53;101920.92;1742525;81;22495;-74
2021/10/28 12:23:16;;;;;;;16.17;5.97;;;;;;;16.65;63.60;101899.48;1649494;86;21796;-76
2021/10/28 12:45:19;;;;;;;11.70;6.83;;;;;;;16.00;64.00;101905.27;1647316;87;21204;-75
2021/10/28 13:38:28;;;;;;;9.08;5.75;;;;;;;14.85;65.42;101891.95;1745508;82;21552;-75
2021/10/28 13:48:13;;;;;;;10.90;6.87;;;;;;;14.64;65.68;101897.16;1713341;82;21591;-82
2021/10/28 13:49:04;;;;;;;10.55;5.95;;;;;;;14.45;66.02;101898.78;1745790;81;22312;-82
2021/10/28 13:57:02;;;;;;;13.93;7.45;;;;;;;14.26;66.58;101900.91;1694363;82;21031;-81
2021/10/28 14:29:41;;;;;;;48.42;21.77;;;;;;;13.41;68.18;101898.39;1719470;82;21647;-75
2021/10/28 14:32:29;;;;;;;60.58;24.45;;;;;;;13.33;68.36;101901.66;1714645;82;21491;-76
2021/10/28 14:35:11;;;;;;;45.85;24.63;;;;;;;13.26;68.55;101901.84;1710263;82;21079;-77
2021/10/28 15:29:39;;;;;;;42.25;19.52;;;;;;;11.72;72.12;101883.59;1719796;82;21051;-83
2021/10/28 15:32:53;;;;;;;39.00;19.62;;;;;;;11.77;72.44;101893.48;1723694;82;21086;-90
2021/10/28 15:35:11;;;;;;;44.70;21.97;;;;;;;11.86;72.59;101888.56;1698435;82;21838;-81
2021/10/28 15:37:43;;;;;;;44.25;23.50;;;;;;;11.87;72.28;101892.09;1713752;83;21064;-78
2021/10/28 15:49:17;;;;;;;50.58;35.00;;;;;;;11.42;72.55;101881.56;1719070;83;21945;-76
2021/10/28 15:53:57;;;;;;;39.63;27.00;;;;;;;11.22;72.88;101893.53;1719835;82;21175;-77
2021/10/28 15:59:30;;;;;;;34.58;19.25;;;;;;;11.03;73.20;101889.22;1675884;83;21656;-76
2021/10/28 16:23:38;;;;;;;23.98;15.90;;;;;;;10.38;74.87;101889.55;1726057;82;21095;-76
2021/10/28 16:26:05;;;;;;;31.27;17.05;;;;;;;10.31;75.02;101888.36;1717732;82;21662;-76
2021/10/28 16:28:32;;;;;;;29.32;17.65;;;;;;;10.25;75.08;101892.44;1715305;82;22373;-76
2021/10/28 16:31:00;;;;;;;23.27;16.17;;;;;;;10.19;75.18;101890.43;1696586;82;22091;-76
2021/10/28 16:33:30;;;;;;;30.08;19.07;;;;;;;10.15;75.38;101890.20;1720426;82;21095;-76
2021/10/28 16:35:57;;;;;;;28.02;18.67;;;;;;;10.09;75.46;101885.14;1715531;82;21655;-76
2021/10/28 16:38:25;;;;;;;26.65;18.55;;;;;;;10.05;75.62;101892.42;1715456;82;21611;-76
2021/10/28 16:40:55;;;;;;;24.32;17.77;;;;;;;10.00;75.68;101895.66;1715592;82;21875;-76
2021/10/28 16:43:21;;;;;;;25.62;18.30;;;;;;;9.96;75.83;101897.25;1715702;83;21584;-76
2021/10/28 16:45:53;;;;;;;33.23;21.73;;;;;;;9.91;75.90;101898.37;1715436;82;21082;-76
2021/10/28 16:48:20;;;;;;;39.00;26.20;;;;;;;9.87;75.99;101895.52;1715281;83;21134;-76
2021/10/28 16:50:47;;;;;;;43.33;24.55;;;;;;;9.83;76.13;101898.84;1715338;83;21134;-76
2021/10/28 16:53:14;;;;;;;42.58;27.22;;;;;;;9.77;76.39;101896.83;1715364;83;22568;-76
2021/10/28 16:55:41;;;;;;;51.10;28.57;;;;;;;9.73;76.42;101896.20;1714848;83;21031;-76
2021/10/28 16:58:10;;;;;;;53.80;27.13;;;;;;;9.70;76.54;101897.36;1715376;83;21086;-76
2021/10/28 17:00:36;;;;;;;40.92;26.23;;;;;;;9.66;76.68;101898.05;1715041;83;21126;-76
2021/10/28 17:03:03;;;;;;;56.73;26.30;;;;;;;9.62;76.89;101896.11;1715346;83;21134;-76
2021/10/28 17:05:31;;;;;;;46.85;24.87;;;;;;;9.57;76.79;101897.19;1715337;83;21765;-76
2021/10/28 17:07:57;;;;;;;37.85;24.98;;;;;;;9.51;76.85;101899.53;1715080;83;21149;-76
2021/10/28 17:10:24;;;;;;;41.55;24.72;;;;;;;9.46;77.00;101899.33;1715387;83;21047;-77
2021/10/28 17:12:51;;;;;;;42.27;25.48;;;;;;;9.41;77.02;101898.63;1715566;83;21082;-76
2021/10/28 17:15:19;;;;;;;35.43;23.47;;;;;;;9.35;77.09;101900.55;1715583;83;21102;-76
2021/10/28 17:17:46;;;;;;;38.30;24.25;;;;;;;9.31;77.21;101903.85;1719174;82;21769;-76
2021/10/28 17:20:13;;;;;;;32.98;23.50;;;;;;;9.26;77.33;101903.61;1715012;83;21071;-77
2021/10/28 17:22:39;;;;;;;29.70;21.70;;;;;;;9.22;77.45;101903.41;1715203;83;21142;-76
2021/10/28 17:25:09;;;;;;;35.92;22.30;;;;;;;9.20;77.52;101899.80;1715296;83;21023;-76
2021/10/28 17:27:35;;;;;;;30.02;22.70;;;;;;;9.13;77.51;101904.73;1715681;83;21355;-76
2021/10/28 17:30:04;;;;;;;32.85;22.15;;;;;;;9.09;77.59;101901.89;1722705;83;21842;-76
2021/10/28 17:32:36;;;;;;;29.05;20.92;;;;;;;9.04;77.75;101906.01;1723501;81;21077;-77
2021/10/28 17:35:00;;;;;;;31.55;20.72;;;;;;;9.01;77.85;101905.45;1721983;83;21031;-76
2021/10/28 17:37:26;;;;;;;32.45;19.85;;;;;;;8.98;78.02;101900.04;1724554;81;21145;-76
2021/10/28 17:39:53;;;;;;;33.88;20.60;;;;;;;8.94;77.99;101900.72;1728998;81;21078;-76
2021/10/28 17:42:23;;;;;;;32.85;21.62;;;;;;;8.89;77.98;101899.58;1726994;81;21749;-76
2021/10/28 17:44:57;;;;;;;37.03;21.65;;;;;;;8.84;78.10;101901.98;1730771;81;21103;-76
2021/10/28 17:47:29;;;;;;;29.27;22.15;;;;;;;8.82;78.23;101901.40;1734203;81;21110;-77
2021/10/28 17:49:56;;;;;;;39.10;24.23;;;;;;;8.81;78.37;101910.11;1731009;81;21168;-77
2021/10/28 17:52:23;;;;;;;44.03;26.05;;;;;;;8.79;78.51;101906.09;1722810;83;21171;-76
2021/10/28 17:54:50;;;;;;;45.83;27.67;;;;;;;8.76;78.51;101899.36;1722453;81;21757;-76
2021/10/28 17:57:17;;;;;;;55.05;29.32;;;;;;;8.73;78.65;101900.12;1732535;81;21059;-77
2021/10/28 17:59:47;;;;;;;53.02;32.80;;;;;;;8.70;78.65;101896.02;1705377;83;21064;-76
2021/10/28 18:02:14;;;;;;;45.15;30.40;;;;;;;8.70;78.73;101896.02;1726813;81;21079;-76
2021/10/28 18:04:43;;;;;;;55.15;32.45;;;;;;;8.68;78.75;101896.35;1731292;81;21155;-76
2021/10/28 18:07:09;;;;;;;52.93;33.38;;;;;;;8.65;78.72;101894.91;1726881;81;21796;-76
2021/10/28 18:09:37;;;;;;;56.35;36.50;;;;;;;8.62;78.74;101890.80;1726771;81;21569;-77
2021/10/28 18:12:05;;;;;;;54.55;38.23;;;;;;;8.58;78.85;101893.16;1726919;81;21067;-76
2021/10/28 18:14:31;;;;;;;50.85;37.33;;;;;;;8.56;78.88;101890.07;1722569;81;21118;-76
2021/10/28 18:17:01;;;;;;;57.30;41.13;;;;;;;8.54;79.03;101889.09;1722600;81;21035;-76
2021/10/28 18:19:27;;;;;;;52.98;37.40;;;;;;;8.52;79.18;101875.00;1722757;81;21751;-76
2021/10/28 18:21:55;;;;;;;58.73;40.80;;;;;;;8.51;79.17;101877.53;1725616;81;21659;-77
2021/10/28 18:24:23;;;;;;;63.83;45.90;;;;;;;8.47;79.17;101880.41;1723008;82;21109;-77
2021/10/28 18:26:50;;;;;;;68.65;46.60;;;;;;;8.46;79.39;101879.91;1722889;83;21091;-76
2021/10/28 18:29:18;;;;;;;60.83;44.40;;;;;;;8.44;79.43;101871.48;1722082;82;21064;-76
2021/10/28 18:31:45;;;;;;;63.78;47.08;;;;;;;8.43;79.50;101874.91;1729139;82;22317;-76
2021/10/28 18:34:14;;;;;;;62.15;44.18;;;;;;;8.43;79.70;101878.45;1738518;82;21019;-79
2021/10/28 18:36:41;;;;;;;59.30;41.77;;;;;;;8.42;79.72;101874.44;1738652;82;21083;-75
2021/10/28 18:39:09;;;;;;;64.85;45.70;;;;;;;8.41;79.83;101881.77;1738267;82;20993;-74
2021/10/28 18:41:35;;;;;;;73.12;48.98;;;;;;;8.41;79.95;101875.20;1715254;81;21186;-74
2021/10/28 18:44:02;;;;;;;71.17;47.67;;;;;;;8.40;80.11;101873.00;1734750;81;22588;-74
2021/10/28 18:46:29;;;;;;;63.85;47.48;;;;;;;8.43;80.25;101873.59;1738228;82;21055;-75
2021/10/28 18:48:58;;;;;;;65.08;47.75;;;;;;;8.42;80.25;101872.70;1738366;82;21086;-74
2021/10/28 18:51:26;;;;;;;65.52;48.48;;;;;;;8.40;80.30;101866.45;1738021;82;21266;-73
2021/10/28 18:53:53;;;;;;;63.83;49.20;;;;;;;8.39;80.35;101872.53;1738288;81;21122;-73
2021/10/28 18:56:19;;;;;;;67.87;47.17;;;;;;;8.38;80.39;101869.41;1738349;82;22626;-74
2021/10/28 18:58:46;;;;;;;66.87;47.13;;;;;;;8.37;80.48;101862.34;1738261;82;21118;-73
2021/10/28 19:01:15;;;;;;;71.02;48.85;;;;;;;8.34;80.45;101864.83;1738469;82;21016;-76
2021/10/28 19:03:43;;;;;;;71.65;49.73;;;;;;;8.33;80.59;101865.24;1738436;82;21652;-75
2021/10/28 19:06:10;;;;;;;77.35;50.98;;;;;;;8.33;80.64;101866.94;1738244;82;21097;-76
2021/10/28 19:08:38;;;;;;;86.50;50.75;;;;;;;8.32;80.71;101873.03;1738119;82;21684;-76
2021/10/28 19:11:05;;;;;;;94.03;53.42;;;;;;;8.30;80.74;101867.70;1737990;82;21647;-77
2021/10/28 19:13:36;;;;;;;85.53;52.43;;;;;;;8.29;80.81;101866.30;1738083;82;21098;-77
2021/10/28 19:16:03;;;;;;;105.22;59.85;;;;;;;8.28;80.83;101870.66;1738032;82;21082;-76
2021/10/28 19:18:32;;;;;;;109.37;58.73;;;;;;;8.26;80.86;101867.05;1738157;82;21113;-76
2021/10/28 19:20:59;;;;;;;110.97;60.80;;;;;;;8.25;80.92;101868.28;1738284;82;21931;-75
2021/10/28 19:23:25;;;;;;;108.25;61.98;;;;;;;8.23;81.03;101869.92;1720735;82;21110;-75
2021/10/28 19:25:53;;;;;;;115.97;63.63;;;;;;;8.22;81.18;101858.54;1718889;82;21171;-76
2021/10/28 19:28:24;;;;;;;111.88;63.92;;;;;;;8.21;81.21;101855.41;1715061;82;21074;-75